createdAt,value
2023-04-04T00:01:54.519Z,3.15
2023-04-04T00:04:24.520Z,2.92
2023-04-04T00:07:03.857Z,3.13
2023-04-04T00:09:42.696Z,3.70
2023-04-04T00:12:17.573Z,3.17
2023-04-04T00:14:47.813Z,2.97
2023-04-04T00:17:27.139Z,2.60
2023-04-04T00:19:55.068Z,3.20
2023-04-04T00:22:38.378Z,2.78
2023-04-04T00:25:07.340Z,3.00
2023-04-04T00:27:38.512Z,2.80
2023-04-04T00:30:16.987Z,3.42
2023-04-04T00:32:47.178Z,2.83
2023-04-04T00:35:37.068Z,3.45
2023-04-04T00:38:22.656Z,3.50
2023-04-04T00:40:57.829Z,2.80
2023-04-04T00:43:52.841Z,3.13
2023-04-04T00:46:31.785Z,2.95
2023-04-04T00:49:01.030Z,3.30
2023-04-04T00:51:46.512Z,3.17
2023-04-04T00:54:20.939Z,3.10
2023-04-04T00:56:49.280Z,3.15
2023-04-04T00:59:21.018Z,3.67
2023-04-04T01:01:56.290Z,3.05
2023-04-04T01:04:46.038Z,3.17
2023-04-04T01:07:16.448Z,3.42
2023-04-04T01:10:14.654Z,3.50
2023-04-04T01:12:52.142Z,3.63
2023-04-04T01:15:35.690Z,3.38
2023-04-04T01:21:24.130Z,3.40
2023-04-04T01:24:06.002Z,3.30
2023-04-04T01:26:38.950Z,3.83
2023-04-04T01:29:19.226Z,3.70
2023-04-04T01:32:12.350Z,3.17
2023-04-04T01:41:10.712Z,3.40
2023-04-04T01:43:43.819Z,3.63
2023-04-04T01:46:30.894Z,3.38
2023-04-04T01:49:03.094Z,3.20
2023-04-04T01:51:37.340Z,3.17
2023-04-04T01:54:06.456Z,2.95
2023-04-04T01:56:59.410Z,3.42
2023-04-04T01:59:28.617Z,3.53
2023-04-04T02:01:57.997Z,3.45
2023-04-04T02:04:36.465Z,3.50
2023-04-04T02:07:13.740Z,3.42
2023-04-04T02:09:48.956Z,3.85
2023-04-04T02:12:23.769Z,3.33
2023-04-04T02:14:58.373Z,3.10
2023-04-04T02:17:29.845Z,3.55
2023-04-04T02:22:50.343Z,3.20
2023-04-04T02:25:29.475Z,3.67
2023-04-04T02:28:15.037Z,7.93
2023-04-04T02:30:53.798Z,3.10
2023-04-04T02:33:32.359Z,4.00
2023-04-04T02:36:01.124Z,3.70
2023-04-04T02:38:48.209Z,4.43
2023-04-04T02:41:25.553Z,3.97
2023-04-04T02:43:54.639Z,3.30
2023-04-04T02:46:24.867Z,3.33
2023-04-04T02:48:58.832Z,3.25
2023-04-04T02:51:29.913Z,3.25
2023-04-04T02:54:02.433Z,3.50
2023-04-04T02:56:33.622Z,4.05
2023-04-04T02:59:14.149Z,3.70
2023-04-04T03:01:51.414Z,3.83
2023-04-04T03:04:31.426Z,3.65
2023-04-04T03:06:59.675Z,3.30
2023-04-04T03:09:29.032Z,3.80
2023-04-04T03:11:58.727Z,3.65
2023-04-04T03:14:29.407Z,3.63
2023-04-04T03:17:06.238Z,4.20
2023-04-04T03:19:47.473Z,3.83
2023-04-04T03:22:22.913Z,3.67
2023-04-04T03:24:57.238Z,3.28
2023-04-04T03:27:27.346Z,4.07
2023-04-04T03:30:01.835Z,3.30
2023-04-04T03:32:31.023Z,4.10
2023-04-04T03:35:02.464Z,3.75
2023-04-04T03:37:44.283Z,4.57
2023-04-04T03:40:31.726Z,3.95
2023-04-04T03:43:05.823Z,4.22
2023-04-04T03:45:36.098Z,3.97
2023-04-04T03:48:12.720Z,3.90
2023-04-04T03:50:42.419Z,3.38
2023-04-04T03:53:25.855Z,4.70
2023-04-04T03:56:14.346Z,3.95
2023-04-04T03:58:42.914Z,4.07
2023-04-04T04:01:14.330Z,4.10
2023-04-04T04:06:45.375Z,3.95
2023-04-04T04:09:20.868Z,4.03
2023-04-04T04:11:49.210Z,3.78
2023-04-04T04:14:17.328Z,4.22
2023-04-04T04:16:54.014Z,3.78
2023-04-04T04:19:39.931Z,3.72
2023-04-04T04:22:15.236Z,3.55
2023-04-04T04:24:43.329Z,3.47
2023-04-04T04:27:11.245Z,3.72
2023-04-04T04:29:48.489Z,3.75
2023-04-04T04:32:24.756Z,3.72
2023-04-04T04:34:55.707Z,3.60
2023-04-04T04:37:24.463Z,3.65
2023-04-04T04:39:57.073Z,3.65
2023-04-04T04:42:27.436Z,4.00
2023-04-04T04:45:22.247Z,3.80
2023-04-04T04:47:51.662Z,4.13
2023-04-04T04:50:27.389Z,3.50
2023-04-04T04:52:56.429Z,4.00
2023-04-04T04:55:35.608Z,4.00
2023-04-04T04:58:13.065Z,3.63
2023-04-04T05:00:58.327Z,5.72
2023-04-04T05:03:42.921Z,3.45
2023-04-04T05:06:19.259Z,4.05
2023-04-04T05:08:54.534Z,3.88
2023-04-04T05:11:29.262Z,3.75
2023-04-04T05:14:00.167Z,3.83
2023-04-04T05:16:33.348Z,3.67
2023-04-04T05:19:13.736Z,3.65
2023-04-04T05:22:00.287Z,3.50
2023-04-04T05:24:55.045Z,3.65
2023-04-04T05:27:23.079Z,3.83
2023-04-04T05:29:51.210Z,4.18
2023-04-04T05:33:05.048Z,3.40
2023-04-04T05:35:34.266Z,4.18
2023-04-04T05:41:10.221Z,4.43
2023-04-04T05:43:44.326Z,3.75
2023-04-04T05:46:13.484Z,3.60
2023-04-04T05:49:00.965Z,3.72
2023-04-04T05:51:31.287Z,3.60
2023-04-04T05:54:01.514Z,3.65
2023-04-04T05:59:48.261Z,4.30
2023-04-04T06:02:22.560Z,3.65
2023-04-04T06:04:51.842Z,3.75
2023-04-04T06:07:24.776Z,3.60
2023-04-04T06:10:10.321Z,4.30
2023-04-04T06:12:41.855Z,3.85
2023-04-04T06:17:55.035Z,3.95
2023-04-04T06:20:38.831Z,3.47
2023-04-04T06:23:11.454Z,3.88
2023-04-04T06:25:39.461Z,3.33
2023-04-04T06:28:12.474Z,3.67
2023-04-04T06:30:53.177Z,3.83
2023-04-04T06:33:24.259Z,3.40
2023-04-04T06:35:52.460Z,4.25
2023-04-04T06:38:21.639Z,4.25
2023-04-04T06:41:05.104Z,3.15
2023-04-04T06:43:36.276Z,3.67
2023-04-04T06:46:08.607Z,3.45
2023-04-04T06:48:53.261Z,3.22
2023-04-04T06:51:34.938Z,3.70
2023-04-04T06:54:09.999Z,3.25
2023-04-04T06:56:38.140Z,4.22
2023-04-04T06:59:21.450Z,3.83
2023-04-04T07:02:09.038Z,3.45
2023-04-04T07:07:49.361Z,2.92
2023-04-04T07:10:17.773Z,3.47
2023-04-04T07:13:07.661Z,3.47
2023-04-04T07:15:55.526Z,3.50
2023-04-04T07:18:23.627Z,3.10
2023-04-04T07:20:56.944Z,3.53
2023-04-04T07:23:35.507Z,3.10
2023-04-04T07:26:25.483Z,4.22
2023-04-04T07:29:12.906Z,3.33
2023-04-04T07:31:46.287Z,3.25
2023-04-04T07:34:23.993Z,3.70
2023-04-04T07:36:52.036Z,4.00
2023-04-04T07:39:30.275Z,3.30
2023-04-04T07:41:59.384Z,3.33
2023-04-04T07:44:42.762Z,3.65
2023-04-04T07:47:23.931Z,3.70
2023-04-04T07:50:01.118Z,3.20
2023-04-04T07:52:43.782Z,3.10
2023-04-04T07:55:16.968Z,3.17
2023-04-04T07:58:15.156Z,3.80
2023-04-04T08:00:55.706Z,3.67
2023-04-04T08:03:33.594Z,3.45
2023-04-04T08:06:06.010Z,3.50
2023-04-04T08:08:34.016Z,3.80
2023-04-04T08:11:01.989Z,3.38
2023-04-04T08:13:30.277Z,3.38
2023-04-04T08:16:19.051Z,3.55
2023-04-04T08:19:00.410Z,3.20
2023-04-04T08:21:38.846Z,3.33
2023-04-04T08:24:10.000Z,4.10
2023-04-04T08:26:54.635Z,3.53
2023-04-04T08:29:51.867Z,3.20
2023-04-04T08:32:47.225Z,4.05
2023-04-04T08:35:40.306Z,3.80
2023-04-04T08:38:27.276Z,3.45
2023-04-04T08:40:56.302Z,3.17
2023-04-04T08:43:26.296Z,3.67
2023-04-04T08:46:00.825Z,3.45
2023-04-04T08:48:32.475Z,3.65
2023-04-04T08:51:03.460Z,3.80
2023-04-04T08:53:40.134Z,3.90
2023-04-04T08:56:08.365Z,3.53
2023-04-04T08:58:40.467Z,3.67
2023-04-04T09:01:09.718Z,3.58
2023-04-04T09:03:39.216Z,3.10
2023-04-04T09:06:07.755Z,3.33
2023-04-04T09:08:59.052Z,3.60
2023-04-04T09:11:34.922Z,3.22
2023-04-04T09:14:08.294Z,3.22
2023-04-04T09:16:58.333Z,4.05
2023-04-04T09:20:07.268Z,3.50
2023-04-04T09:22:39.741Z,3.92
2023-04-04T09:25:29.794Z,3.08
2023-04-04T09:27:59.629Z,3.67
2023-04-04T09:30:28.738Z,3.65
2023-04-04T09:32:58.851Z,3.22
2023-04-04T09:35:28.645Z,3.50
2023-04-04T09:37:57.348Z,3.13
2023-04-04T09:40:27.808Z,4.18
2023-04-04T09:42:59.672Z,3.80
2023-04-04T09:45:56.568Z,3.25
2023-04-04T09:48:39.010Z,3.30
2023-04-04T09:51:08.657Z,3.38
2023-04-04T09:53:38.641Z,3.10
2023-04-04T09:56:07.490Z,3.30
2023-04-04T09:58:52.470Z,3.42
2023-04-04T10:01:29.926Z,3.15
2023-04-04T10:04:15.215Z,3.55
2023-04-04T10:06:50.901Z,3.38
2023-04-04T10:09:49.269Z,3.30
2023-04-04T10:12:31.870Z,2.72
2023-04-04T10:15:00.614Z,3.50
2023-04-04T10:17:54.092Z,3.53
2023-04-04T10:20:27.604Z,3.08
2023-04-04T10:22:56.903Z,3.60
2023-04-04T10:25:38.554Z,3.45
2023-04-04T10:31:07.124Z,3.10
2023-04-04T10:34:03.732Z,3.63
2023-04-04T10:36:35.636Z,3.35
2023-04-04T10:39:30.595Z,4.00
2023-04-04T10:45:49.621Z,3.20
2023-04-04T10:48:27.728Z,3.20
2023-04-04T10:51:02.965Z,3.33
2023-04-04T10:53:40.086Z,3.47
2023-04-04T10:56:15.582Z,4.00
2023-04-04T10:58:52.856Z,3.80
2023-04-04T11:01:51.233Z,3.70
2023-04-04T11:04:36.879Z,4.03
2023-04-04T11:07:13.866Z,3.92
2023-04-04T11:09:57.387Z,3.78
2023-04-04T11:12:49.015Z,3.90
2023-04-04T11:15:26.119Z,3.88
2023-04-04T11:18:00.703Z,5.32
2023-04-04T11:20:36.061Z,5.70
2023-04-04T11:23:08.102Z,4.75
2023-04-04T11:25:52.186Z,5.18
2023-04-04T11:28:42.181Z,4.32
2023-04-04T11:31:37.859Z,5.65
2023-04-04T11:37:25.574Z,4.72
2023-04-04T11:39:58.634Z,4.65
2023-04-04T11:42:42.095Z,4.03
2023-04-04T11:45:27.114Z,4.47
2023-04-04T11:47:59.583Z,4.22
2023-04-04T11:50:54.817Z,4.20
2023-04-04T11:53:52.001Z,6.07
2023-04-04T11:56:24.392Z,5.18
2023-04-04T11:59:11.795Z,5.15
2023-04-04T12:01:43.130Z,5.28
2023-04-04T12:04:21.927Z,5.30
2023-04-04T12:06:55.030Z,4.97
2023-04-04T12:09:36.312Z,4.25
2023-04-04T12:12:08.921Z,7.10
2023-04-04T12:14:46.955Z,4.47
2023-04-04T12:17:20.308Z,4.40
2023-04-04T12:19:58.760Z,4.30
2023-04-04T12:22:31.126Z,4.57
2023-04-04T12:25:19.800Z,3.72
2023-04-04T12:27:58.096Z,4.38
2023-04-04T12:30:32.722Z,4.35
2023-04-04T12:33:03.048Z,4.30
2023-04-04T12:35:31.410Z,4.20
2023-04-04T12:38:03.065Z,3.72
2023-04-04T12:40:41.406Z,3.47
2023-04-04T12:43:18.361Z,4.10
2023-04-04T12:45:51.354Z,3.95
2023-04-04T12:48:43.311Z,4.25
2023-04-04T12:51:13.735Z,4.13
2023-04-04T12:54:05.517Z,4.47
2023-04-04T12:59:37.699Z,4.00
2023-04-04T13:02:12.667Z,4.93
2023-04-04T13:05:09.744Z,4.63
2023-04-04T13:08:06.341Z,4.80
2023-04-04T13:11:02.535Z,5.03
2023-04-04T13:13:38.046Z,5.00
2023-04-04T13:16:13.256Z,4.88
2023-04-04T13:18:51.919Z,4.80
2023-04-04T13:21:37.449Z,4.20
2023-04-04T13:27:23.863Z,4.03
2023-04-04T13:30:03.510Z,4.60
2023-04-04T13:32:38.657Z,4.10
2023-04-04T13:35:11.058Z,4.25
2023-04-04T13:37:49.780Z,4.63
2023-04-04T13:40:29.965Z,5.00
2023-04-04T13:43:01.291Z,4.20
2023-04-04T13:45:33.967Z,3.95
2023-04-04T13:48:09.322Z,4.30
2023-04-04T13:51:05.526Z,4.32
2023-04-04T13:53:40.673Z,4.20
2023-04-04T13:56:18.508Z,4.10
2023-04-04T13:58:52.296Z,3.97
2023-04-04T14:01:35.789Z,3.88
2023-04-04T14:04:22.593Z,4.82
2023-04-04T14:07:02.343Z,4.07
2023-04-04T14:09:30.875Z,4.40
2023-04-04T14:12:05.012Z,4.40
2023-04-04T14:14:53.065Z,4.13
2023-04-04T14:17:28.745Z,4.07
2023-04-04T14:20:02.171Z,4.45
2023-04-04T14:22:37.611Z,4.28
2023-04-04T14:25:22.950Z,4.32
2023-04-04T14:28:10.133Z,4.20
2023-04-04T14:30:53.321Z,4.43
2023-04-04T14:33:23.686Z,4.60
2023-04-04T14:35:55.702Z,4.85
2023-04-04T14:38:39.422Z,4.13
2023-04-04T14:41:07.891Z,4.47
2023-04-04T14:43:36.967Z,4.70
2023-04-04T14:46:16.559Z,5.28
2023-04-04T14:49:07.947Z,4.28
2023-04-04T14:51:36.468Z,4.40
2023-04-04T14:54:08.461Z,4.50
2023-04-04T14:56:50.261Z,4.78
2023-04-04T14:59:24.521Z,4.68
2023-04-04T15:01:54.753Z,4.60
2023-04-04T15:04:41.194Z,4.50
2023-04-04T15:07:19.054Z,4.80
2023-04-04T15:13:05.165Z,4.18
2023-04-04T15:15:35.188Z,3.90
2023-04-04T15:18:30.267Z,4.72
2023-04-04T15:21:05.747Z,4.60
2023-04-04T15:24:04.213Z,4.07
2023-04-04T15:27:08.885Z,4.43
2023-04-04T15:30:08.832Z,4.60
2023-04-04T15:32:39.161Z,4.95
2023-04-04T15:35:17.024Z,3.75
2023-04-04T15:37:45.247Z,4.70
2023-04-04T15:40:16.986Z,3.97
2023-04-04T15:42:50.240Z,4.95
2023-04-04T15:45:21.410Z,4.63
2023-04-04T15:48:01.921Z,4.40
2023-04-04T15:50:33.106Z,4.13
2023-04-04T15:53:10.659Z,4.72
2023-04-04T15:55:48.654Z,3.90
2023-04-04T15:58:20.799Z,3.97
2023-04-04T16:01:02.221Z,4.45
2023-04-04T16:03:53.660Z,4.35
2023-04-04T16:06:22.690Z,4.00
2023-04-04T16:09:15.795Z,4.10
2023-04-04T16:12:10.850Z,3.90
2023-04-04T16:14:59.195Z,3.83
2023-04-04T16:17:41.495Z,4.07
2023-04-04T16:20:22.200Z,4.35
2023-04-04T16:23:16.222Z,3.90
2023-04-04T16:25:46.601Z,3.95
2023-04-04T16:28:14.633Z,4.40
2023-04-04T16:30:54.144Z,4.15
2023-04-04T16:33:30.391Z,4.43
2023-04-04T16:35:58.669Z,4.05
2023-04-04T16:38:36.468Z,4.55
2023-04-04T16:41:12.934Z,4.43
2023-04-04T16:43:49.959Z,4.22
2023-04-04T16:46:22.055Z,4.85
2023-04-04T16:48:50.276Z,4.88
2023-04-04T16:51:18.193Z,4.22
2023-04-04T16:54:18.166Z,4.22
2023-04-04T16:57:11.039Z,4.60
2023-04-04T17:00:14.899Z,4.22
2023-04-04T17:03:04.761Z,4.60
2023-04-04T17:05:37.913Z,4.93
2023-04-04T17:08:08.676Z,4.10
2023-04-04T17:10:44.744Z,4.47
2023-04-04T17:13:27.679Z,4.28
2023-04-04T17:16:15.246Z,4.25
2023-04-04T17:18:48.169Z,4.38
2023-04-04T17:21:58.118Z,3.83
2023-04-04T17:24:42.140Z,4.40
2023-04-04T17:27:25.675Z,4.47
2023-04-04T17:29:55.822Z,4.45
2023-04-04T17:32:25.820Z,4.32
2023-04-04T17:35:13.034Z,4.20
2023-04-04T17:38:03.650Z,3.63
2023-04-04T17:40:33.615Z,4.43
2023-04-04T17:43:02.911Z,3.72
2023-04-04T17:45:41.261Z,3.45
2023-04-04T17:48:38.382Z,4.47
2023-04-04T17:51:13.022Z,3.53
2023-04-04T17:53:55.172Z,3.40
2023-04-04T17:56:30.520Z,3.70
2023-04-04T17:59:06.664Z,3.70
2023-04-04T18:01:47.274Z,3.70
2023-04-04T18:07:33.626Z,3.65
2023-04-04T18:10:03.033Z,3.60
2023-04-04T18:12:44.242Z,3.88
2023-04-04T18:15:35.080Z,3.60
2023-04-04T18:18:12.605Z,4.07
2023-04-04T18:20:40.844Z,3.33
2023-04-04T18:23:12.238Z,3.78
2023-04-04T18:25:46.489Z,3.45
2023-04-04T18:28:17.689Z,3.60
2023-04-04T18:30:45.896Z,3.90
2023-04-04T18:33:13.980Z,4.18
2023-04-04T18:36:02.190Z,3.50
2023-04-04T18:38:30.371Z,3.47
2023-04-04T18:41:00.563Z,3.50
2023-04-04T18:43:41.727Z,3.97
2023-04-04T18:46:31.522Z,3.65
2023-04-04T18:49:16.962Z,3.83
2023-04-04T18:51:51.261Z,3.45
2023-04-04T18:54:21.873Z,3.97
2023-04-04T18:56:50.655Z,3.70
2023-04-04T18:59:32.201Z,3.65
2023-04-04T19:04:50.596Z,7.15
2023-04-04T19:07:25.978Z,5.55
2023-04-04T19:10:04.353Z,5.22
2023-04-04T19:12:39.615Z,5.38
2023-04-04T19:15:10.817Z,5.07
2023-04-04T19:17:57.299Z,7.80
2023-04-04T19:20:26.151Z,5.85
2023-04-04T19:22:56.135Z,3.78
2023-04-04T19:25:46.253Z,4.45
2023-04-04T19:28:23.484Z,5.22
2023-04-04T19:30:58.504Z,6.72
2023-04-04T19:33:34.470Z,4.95
2023-04-04T19:36:20.776Z,4.55
2023-04-04T19:39:09.485Z,8.50
2023-04-04T19:41:51.662Z,8.55
2023-04-04T19:44:34.906Z,3.42
2023-04-04T19:47:21.936Z,4.38
2023-04-04T19:50:10.611Z,4.40
2023-04-04T19:52:39.064Z,4.00
2023-04-04T19:55:09.974Z,3.70
2023-04-04T19:57:39.005Z,4.32
2023-04-04T20:00:27.325Z,3.83
2023-04-04T20:02:55.633Z,4.65
2023-04-04T20:05:34.036Z,4.18
2023-04-04T20:08:22.644Z,3.92
2023-04-04T20:11:04.009Z,3.72
2023-04-04T20:14:00.933Z,3.13
2023-04-04T20:16:44.680Z,6.07
2023-04-04T20:19:14.273Z,4.97
2023-04-04T20:21:58.634Z,7.90
2023-04-04T20:24:44.052Z,6.35
2023-04-04T20:27:14.963Z,4.22
2023-04-04T20:30:02.401Z,4.90
2023-04-04T20:32:36.347Z,4.90
2023-04-04T20:35:18.838Z,5.85
2023-04-04T20:37:47.934Z,7.00
2023-04-04T20:40:32.621Z,6.10
2023-04-04T20:43:17.707Z,4.70
2023-04-04T20:46:22.257Z,5.03
2023-04-04T20:48:51.732Z,5.65
2023-04-04T20:51:38.416Z,4.85
2023-04-04T20:54:07.644Z,5.22
2023-04-04T20:56:44.574Z,4.47
2023-04-04T20:59:38.391Z,4.82
2023-04-04T21:02:14.886Z,4.65
2023-04-04T21:04:53.209Z,4.60
2023-04-04T21:07:59.266Z,4.95
2023-04-04T21:10:30.988Z,4.22
2023-04-04T21:13:07.034Z,5.82
2023-04-04T21:16:00.170Z,3.60
2023-04-04T21:18:39.039Z,3.97
2023-04-04T21:24:19.930Z,4.55
2023-04-04T21:27:01.075Z,4.53
2023-04-04T21:29:39.094Z,4.35
2023-04-04T21:32:17.672Z,4.90
2023-04-04T21:34:46.840Z,4.22
2023-04-04T21:37:17.436Z,4.25
2023-04-04T21:39:55.114Z,4.37
2023-04-04T21:42:30.106Z,3.90
2023-04-04T21:45:11.668Z,4.30
2023-04-04T21:50:49.144Z,4.05
2023-04-04T21:53:45.197Z,5.22
2023-04-04T21:56:20.901Z,4.78
2023-04-04T21:59:07.157Z,4.40
2023-04-04T22:01:38.179Z,4.78
2023-04-04T22:04:38.559Z,4.50
2023-04-04T22:07:07.837Z,4.60
2023-04-04T22:10:00.904Z,5.13
2023-04-04T22:12:30.136Z,5.38
2023-04-04T22:15:13.868Z,4.50
2023-04-04T22:18:05.233Z,4.38
2023-04-04T22:20:42.278Z,5.50
2023-04-04T22:29:41.665Z,4.78
2023-04-04T22:32:19.170Z,4.75
2023-04-04T22:34:54.855Z,5.47
2023-04-04T22:37:23.533Z,6.13
2023-04-04T22:39:53.620Z,5.40
2023-04-04T22:42:40.695Z,5.47
2023-04-04T22:45:16.733Z,5.95
2023-04-04T22:47:51.072Z,5.32
2023-04-04T22:50:24.433Z,4.70
2023-04-04T22:53:14.262Z,5.68
2023-04-04T22:55:47.546Z,5.90
2023-04-04T22:58:50.691Z,5.75
2023-04-04T23:01:25.966Z,5.80
2023-04-04T23:04:00.148Z,6.03
2023-04-04T23:06:28.520Z,5.20
2023-04-04T23:09:24.138Z,5.97
2023-04-04T23:12:08.689Z,6.15
2023-04-04T23:14:54.021Z,5.70
2023-04-04T23:17:25.217Z,5.38
2023-04-04T23:19:54.302Z,5.60
2023-04-04T23:26:00.259Z,5.82
2023-04-04T23:28:47.154Z,5.95
2023-04-04T23:31:27.536Z,6.07
2023-04-04T23:34:00.354Z,5.80
2023-04-04T23:36:29.542Z,5.88
2023-04-04T23:39:03.779Z,5.53
2023-04-04T23:42:01.917Z,5.90
2023-04-04T23:44:30.764Z,5.43
2023-04-04T23:47:03.280Z,5.93
2023-04-04T23:49:51.526Z,5.30
2023-04-04T23:52:19.704Z,5.10
2023-04-04T23:55:20.394Z,5.63
2023-04-04T23:58:06.537Z,5.63
